Time;durP1;ratioP1;P1;durP2;ratioP2;P2;SDS_P1;SDS_P2;PMS_P1;PMS_P2;Temp;Humidity;BMP_temperature;BMP_pressure;BME280_temperature;BME280_humidity;BME280_pressure;Samples;Min_cycle;Max_cycle;Signal;HPM_P1;HPM_P2
2022/09/21 00:00:44;;;;;;;12.77;5.90;;;8.00;99.90;;;;;;4989296;28;20920;-55
2022/09/21 00:03:10;;;;;;;13.48;5.47;;;8.00;99.90;;;;;;4979253;28;20464;-55
2022/09/21 00:05:36;;;;;;;14.30;6.40;;;8.00;99.90;;;;;;4970696;28;20415;-55
2022/09/21 00:08:04;;;;;;;13.93;6.15;;;7.90;99.90;;;;;;4989757;28;20387;-57
2022/09/21 00:10:30;;;;;;;15.00;5.45;;;7.90;99.90;;;;;;4988871;28;20375;-55
2022/09/21 00:12:57;;;;;;;14.20;5.70;;;8.70;99.90;;;;;;4992850;28;20907;-55
2022/09/21 00:15:22;;;;;;;10.60;5.20;;;7.80;99.90;;;;;;4993313;28;20497;-55
2022/09/21 00:17:52;;;;;;;12.70;5.63;;;7.70;99.90;;;;;;4987207;28;20479;-56
2022/09/21 00:20:18;;;;;;;16.50;6.35;;;7.60;99.90;;;;;;4973642;28;20391;-55
2022/09/21 00:22:44;;;;;;;11.55;5.30;;;7.60;99.90;;;;;;4972731;28;20459;-56
2022/09/21 00:25:10;;;;;;;14.23;5.18;;;7.60;99.90;;;;;;4991008;28;20387;-55
2022/09/21 00:27:36;;;;;;;12.10;5.30;;;9.50;99.90;;;;;;4992701;28;20393;-55
2022/09/21 00:30:03;;;;;;;10.93;5.47;;;8.50;99.90;;;;;;4993211;28;20422;-55
2022/09/21 00:32:30;;;;;;;12.88;6.00;;;7.70;99.90;;;;;;4992227;28;20876;-55
2022/09/21 00:34:57;;;;;;;12.60;6.67;;;7.60;99.90;;;;;;4992941;28;20428;-55
2022/09/21 00:37:23;;;;;;;11.82;6.18;;;9.00;99.90;;;;;;4992814;28;20390;-55
2022/09/21 00:39:49;;;;;;;14.98;5.90;;;6.30;99.90;;;;;;4992649;28;20393;-55
2022/09/21 00:42:20;;;;;;;12.57;6.05;;;7.70;99.90;;;;;;4975664;28;20856;-56
2022/09/21 00:44:46;;;;;;;11.75;5.90;;;7.70;99.90;;;;;;4991332;28;20398;-56
2022/09/21 00:47:16;;;;;;;14.82;6.03;;;7.70;99.90;;;;;;4979948;28;20428;-56
2022/09/21 00:49:44;;;;;;;12.75;5.80;;;7.60;99.90;;;;;;4972804;28;20400;-55
2022/09/21 00:52:13;;;;;;;11.48;5.43;;;7.50;99.90;;;;;;4973368;28;20399;-55
2022/09/21 00:54:55;;;;;;;11.38;5.28;;;7.50;99.90;;;;;;4972684;28;20389;-55
2022/09/21 00:57:24;;;;;;;13.40;6.10;;;7.40;99.90;;;;;;4973361;28;20396;-56
2022/09/21 00:59:52;;;;;;;10.88;5.40;;;7.50;99.90;;;;;;4973232;28;20396;-56
2022/09/21 01:02:18;;;;;;;13.05;5.78;;;8.60;99.90;;;;;;4962716;28;20495;-55
2022/09/21 01:04:44;;;;;;;13.27;6.00;;;7.30;99.90;;;;;;4953261;29;20394;-55
2022/09/21 01:07:14;;;;;;;14.63;5.80;;;7.30;99.90;;;;;;4972157;28;20401;-55
2022/09/21 01:09:42;;;;;;;12.80;5.50;;;8.10;99.90;;;;;;4972148;28;20426;-55
2022/09/21 01:12:35;;;;;;;11.35;5.40;;;9.30;99.90;;;;;;4973220;28;20786;-56
2022/09/21 01:15:01;;;;;;;13.55;6.10;;;7.30;99.90;;;;;;4972890;28;20515;-55
2022/09/21 01:17:42;;;;;;;13.07;5.38;;;7.10;99.90;;;;;;4972443;28;20476;-55
2022/09/21 01:20:47;;;;;;;11.50;6.10;;;7.90;99.90;;;;;;4972966;28;20441;-55
2022/09/21 01:23:30;;;;;;;15.95;6.05;;;7.00;99.90;;;;;;4972376;28;20440;-55
2022/09/21 01:26:33;;;;;;;12.93;6.40;;;7.80;99.90;;;;;;4972894;28;20408;-56
2022/09/21 01:29:23;;;;;;;13.32;6.10;;;7.10;99.90;;;;;;4972471;28;20389;-55
2022/09/21 01:32:08;;;;;;;12.40;5.90;;;7.00;99.90;;;;;;4971994;28;20408;-55
2022/09/21 01:34:43;;;;;;;12.02;5.50;;;7.00;99.90;;;;;;4971872;28;20384;-55
2022/09/21 01:37:16;;;;;;;11.98;6.32;;;7.00;99.90;;;;;;4972499;28;20384;-56
2022/09/21 01:39:46;;;;;;;12.50;5.20;;;6.90;99.90;;;;;;4972114;28;20493;-55
2022/09/21 01:42:14;;;;;;;13.98;6.03;;;6.90;99.90;;;;;;4972555;28;20395;-56
2022/09/21 01:44:42;;;;;;;12.10;6.05;;;6.90;99.90;;;;;;4972034;28;20396;-55
2022/09/21 01:47:13;;;;;;;14.50;6.90;;;6.90;99.90;;;;;;4972240;28;20392;-55
2022/09/21 01:49:52;;;;;;;12.25;6.60;;;7.00;99.90;;;;;;4971761;28;20449;-56
2022/09/21 01:52:38;;;;;;;11.93;5.93;;;7.10;99.90;;;;;;4972588;28;20471;-56
2022/09/21 01:55:13;;;;;;;13.85;7.13;;;7.10;99.90;;;;;;4959548;28;20420;-56
2022/09/21 01:58:04;;;;;;;14.38;7.15;;;7.10;99.90;;;;;;4952468;29;20876;-56
2022/09/21 02:00:33;;;;;;;14.13;6.22;;;7.10;99.90;;;;;;4952020;29;20492;-56
2022/09/21 02:03:08;;;;;;;14.20;6.80;;;8.30;99.90;;;;;;4953015;28;20427;-56
2022/09/21 02:05:35;;;;;;;14.93;6.65;;;7.00;99.90;;;;;;4951996;29;20864;-55
2022/09/21 02:08:01;;;;;;;12.63;6.10;;;8.60;99.90;;;;;;4952751;29;20764;-55
2022/09/21 02:10:39;;;;;;;14.35;6.20;;;7.00;99.90;;;;;;4951915;29;20851;-55
2022/09/21 02:13:06;;;;;;;12.82;6.10;;;6.90;99.90;;;;;;4952710;29;20386;-55
2022/09/21 02:15:50;;;;;;;16.98;6.50;;;8.60;99.90;;;;;;4951887;29;20414;-55
2022/09/21 02:18:47;;;;;;;11.00;5.73;;;6.80;99.90;;;;;;4952552;29;20398;-55
2022/09/21 02:21:39;;;;;;;16.60;6.80;;;6.80;99.90;;;;;;4949061;29;20406;-55
2022/09/21 02:24:21;;;;;;;14.17;6.40;;;8.10;99.90;;;;;;4952374;29;20888;-56
2022/09/21 02:26:59;;;;;;;13.63;7.20;;;6.70;99.90;;;;;;4951692;29;20402;-55
2022/09/21 02:29:34;;;;;;;11.75;6.20;;;6.80;99.90;;;;;;4951795;29;20913;-55
2022/09/21 02:32:11;;;;;;;16.63;6.25;;;7.00;99.90;;;;;;4952337;29;20820;-55
2022/09/21 02:34:47;;;;;;;13.10;6.50;;;6.80;99.90;;;;;;4951144;28;20393;-55
2022/09/21 02:37:30;;;;;;;15.57;6.60;;;7.10;99.90;;;;;;4952667;29;20402;-55
2022/09/21 02:40:02;;;;;;;15.85;7.20;;;7.20;99.90;;;;;;4968085;28;20507;-56
2022/09/21 02:42:35;;;;;;;14.40;5.93;;;8.70;99.90;;;;;;4970770;28;20382;-55
2022/09/21 02:45:23;;;;;;;12.25;6.20;;;7.10;99.90;;;;;;4971741;28;20477;-55
2022/09/21 02:48:13;;;;;;;12.05;5.78;;;6.80;99.90;;;;;;4970908;28;20420;-55
2022/09/21 02:50:52;;;;;;;12.00;5.80;;;7.00;99.90;;;;;;4969465;28;20479;-55
2022/09/21 02:53:27;;;;;;;13.50;5.85;;;8.60;99.90;;;;;;4951425;29;20422;-55
2022/09/21 02:55:55;;;;;;;13.23;5.70;;;6.90;99.90;;;;;;4951741;29;20414;-56
2022/09/21 02:58:23;;;;;;;12.50;6.03;;;6.80;99.90;;;;;;4952241;29;20437;-55
2022/09/21 03:00:49;;;;;;;11.18;5.00;;;6.80;99.90;;;;;;4951626;29;20385;-55
2022/09/21 03:03:18;;;;;;;12.70;5.40;;;6.80;99.90;;;;;;4951968;28;20414;-55
2022/09/21 03:05:47;;;;;;;12.77;5.50;;;7.60;99.90;;;;;;4950950;29;20647;-55
2022/09/21 03:08:13;;;;;;;14.35;5.68;;;6.80;99.90;;;;;;4962374;28;20471;-55
2022/09/21 03:10:39;;;;;;;10.95;5.13;;;7.70;99.90;;;;;;4970436;28;20491;-56
2022/09/21 03:13:08;;;;;;;12.88;6.57;;;7.00;99.90;;;;;;4966586;28;20895;-55
2022/09/21 03:15:35;;;;;;;15.73;5.30;;;6.60;99.90;;;;;;4950965;29;20902;-55
2022/09/21 03:18:03;;;;;;;11.65;5.68;;;6.50;99.90;;;;;;4951927;29;20398;-55
2022/09/21 03:20:33;;;;;;;13.55;5.95;;;6.50;99.90;;;;;;4951064;29;20461;-55
2022/09/21 03:22:59;;;;;;;13.48;6.30;;;6.40;99.90;;;;;;4952127;29;20751;-55
2022/09/21 03:25:25;;;;;;;14.50;6.30;;;7.90;99.90;;;;;;4951296;29;20398;-55
2022/09/21 03:27:54;;;;;;;11.30;5.88;;;6.50;99.90;;;;;;4951305;29;20386;-55
2022/09/21 03:30:24;;;;;;;13.67;6.10;;;8.40;99.90;;;;;;4952293;28;20542;-55
2022/09/21 03:32:51;;;;;;;13.70;6.43;;;6.40;99.90;;;;;;4960283;28;20393;-55
2022/09/21 03:35:21;;;;;;;12.55;6.70;;;8.10;99.90;;;;;;4970476;28;20770;-55
2022/09/21 03:37:48;;;;;;;13.32;6.95;;;6.50;99.90;;;;;;4969708;28;20403;-56
2022/09/21 03:40:15;;;;;;;13.40;6.43;;;6.70;99.90;;;;;;4970359;28;20893;-55
2022/09/21 03:42:41;;;;;;;12.48;5.95;;;6.50;99.90;;;;;;4966659;28;20766;-55
2022/09/21 03:45:09;;;;;;;13.60;6.85;;;6.40;99.90;;;;;;4970536;28;20925;-55
2022/09/21 03:47:35;;;;;;;13.35;7.05;;;6.40;99.90;;;;;;4973772;28;20384;-55
2022/09/21 03:50:01;;;;;;;12.10;6.28;;;8.10;99.90;;;;;;4974739;28;20387;-55
2022/09/21 03:52:27;;;;;;;15.43;6.10;;;7.70;99.90;;;;;;4973861;28;20388;-55
2022/09/21 03:54:53;;;;;;;14.38;6.47;;;6.40;99.90;;;;;;4956963;28;20766;-55
2022/09/21 03:57:19;;;;;;;14.57;7.10;;;6.30;99.90;;;;;;4974399;28;20436;-55
2022/09/21 03:59:45;;;;;;;14.80;7.00;;;6.40;99.90;;;;;;4972199;28;20476;-55
2022/09/21 04:02:10;;;;;;;14.27;7.13;;;6.40;99.90;;;;;;4980247;28;20418;-55
2022/09/21 04:04:36;;;;;;;14.32;5.95;;;6.40;99.90;;;;;;4992200;28;20406;-55
2022/09/21 04:07:01;;;;;;;14.60;6.37;;;6.40;99.90;;;;;;4994089;28;20841;-55
2022/09/21 04:09:27;;;;;;;13.25;6.90;;;6.40;99.90;;;;;;4991244;28;20406;-56
2022/09/21 04:11:53;;;;;;;15.23;8.00;;;8.30;99.90;;;;;;4993169;28;20383;-55
2022/09/21 04:14:19;;;;;;;14.23;7.03;;;6.20;99.90;;;;;;4992824;28;20406;-55
2022/09/21 04:16:45;;;;;;;14.73;6.97;;;6.20;99.90;;;;;;4985066;28;21248;-55
2022/09/21 04:19:10;;;;;;;17.85;7.00;;;6.10;99.90;;;;;;4993126;28;20394;-55
2022/09/21 04:21:36;;;;;;;16.00;7.77;;;6.10;99.90;;;;;;4992815;28;20401;-55
2022/09/21 04:24:03;;;;;;;14.85;7.60;;;6.10;99.90;;;;;;4986492;28;20433;-55
2022/09/21 04:26:32;;;;;;;13.00;7.05;;;6.00;99.90;;;;;;4991854;28;20438;-55
2022/09/21 04:28:58;;;;;;;14.18;7.43;;;7.80;99.90;;;;;;4991549;28;20849;-55
2022/09/21 04:31:25;;;;;;;15.25;7.47;;;6.10;99.90;;;;;;4992805;28;20410;-55
2022/09/21 04:33:52;;;;;;;17.40;7.60;;;6.00;99.90;;;;;;4992107;28;20415;-55
2022/09/21 04:36:18;;;;;;;15.55;7.55;;;6.00;99.90;;;;;;4992349;28;20410;-56
2022/09/21 04:38:44;;;;;;;14.45;7.30;;;7.80;99.90;;;;;;4985894;28;20421;-55
2022/09/21 04:41:10;;;;;;;15.23;6.63;;;6.00;99.90;;;;;;4979710;28;20419;-56
2022/09/21 04:43:36;;;;;;;15.13;7.60;;;6.10;99.90;;;;;;4980291;28;20824;-55
2022/09/21 04:46:07;;;;;;;17.58;7.47;;;8.10;99.90;;;;;;4978401;28;20511;-55
2022/09/21 04:48:32;;;;;;;16.80;7.40;;;6.00;99.90;;;;;;4986357;28;20843;-55
2022/09/21 04:50:58;;;;;;;17.98;7.30;;;6.00;99.90;;;;;;4991280;28;20406;-56
2022/09/21 04:53:24;;;;;;;15.47;7.27;;;6.00;99.90;;;;;;4991060;28;20466;-55
2022/09/21 04:55:50;;;;;;;13.68;6.38;;;6.00;99.90;;;;;;4987250;28;20424;-55
2022/09/21 04:58:15;;;;;;;16.23;6.90;;;5.90;99.90;;;;;;4981190;28;20430;-55
2022/09/21 05:00:41;;;;;;;13.52;7.00;;;5.90;99.90;;;;;;4987617;28;20554;-55
2022/09/21 05:03:07;;;;;;;14.33;6.90;;;5.90;99.90;;;;;;4990418;28;20425;-55
2022/09/21 05:05:32;;;;;;;15.75;7.43;;;7.70;99.90;;;;;;4987291;28;20768;-55
2022/09/21 05:07:58;;;;;;;15.20;6.93;;;6.00;99.90;;;;;;4990100;28;20812;-55
2022/09/21 05:10:24;;;;;;;14.43;6.68;;;6.00;99.90;;;;;;4984701;28;20406;-55
2022/09/21 05:12:51;;;;;;;14.90;7.00;;;6.10;99.90;;;;;;4990357;28;21200;-56
2022/09/21 05:15:17;;;;;;;14.38;7.20;;;6.10;99.90;;;;;;4984441;28;20418;-55
2022/09/21 05:17:43;;;;;;;14.00;6.97;;;6.20;99.90;;;;;;4976640;28;20426;-55
2022/09/21 05:20:10;;;;;;;14.00;7.07;;;6.20;99.90;;;;;;4982986;28;20416;-55
2022/09/21 05:22:36;;;;;;;13.63;6.93;;;6.10;99.90;;;;;;4979478;28;20546;-55
2022/09/21 05:25:01;;;;;;;16.33;7.43;;;6.30;99.90;;;;;;4972077;28;20415;-55
2022/09/21 05:27:27;;;;;;;14.63;7.50;;;8.10;99.90;;;;;;4989544;28;20413;-55
2022/09/21 05:29:53;;;;;;;18.17;7.13;;;6.40;99.90;;;;;;4989473;28;20441;-55
2022/09/21 05:32:40;;;;;;;12.98;6.57;;;6.50;99.90;;;;;;4985138;28;20412;-55
2022/09/21 05:35:12;;;;;;;15.82;6.40;;;6.60;99.90;;;;;;4974590;28;20460;-55
2022/09/21 05:37:46;;;;;;;18.75;6.70;;;8.70;99.90;;;;;;4988958;28;20848;-55
2022/09/21 05:40:12;;;;;;;15.57;7.32;;;8.10;99.90;;;;;;4991855;28;20391;-55
2022/09/21 05:42:38;;;;;;;13.98;6.40;;;8.20;99.90;;;;;;4989511;28;20406;-56
2022/09/21 05:45:05;;;;;;;12.13;5.83;;;8.90;99.90;;;;;;4990300;28;20414;-56
2022/09/21 05:47:47;;;;;;;13.35;6.50;;;9.60;99.90;;;;;;4990222;28;20441;-56
2022/09/21 05:50:42;;;;;;;11.95;6.00;;;10.30;99.90;;;;;;4991869;28;20394;-55
2022/09/21 05:53:15;;;;;;;10.98;5.20;;;11.30;1.00;;;;;;4991506;28;20400;-55
2022/09/21 05:55:57;;;;;;;11.90;4.70;;;12.00;99.90;;;;;;4990912;28;20455;-55
2022/09/21 05:59:00;;;;;;;12.57;5.60;;;12.10;99.90;;;;;;4991762;28;20848;-55
2022/09/21 06:01:34;;;;;;;11.50;4.82;;;12.50;99.90;;;;;;4991108;28;20506;-56
2022/09/21 06:04:02;;;;;;;11.05;5.57;;;13.20;1.00;;;;;;4988975;28;20470;-55
2022/09/21 06:06:27;;;;;;;10.05;5.00;;;14.30;99.90;;;;;;4988147;28;20406;-56
2022/09/21 06:08:53;;;;;;;13.23;5.10;;;15.50;1.00;;;;;;4990161;28;20899;-56
2022/09/21 06:11:19;;;;;;;11.80;5.70;;;16.20;1.00;;;;;;4991257;28;20395;-56
2022/09/21 06:13:44;;;;;;;11.67;5.50;;;16.90;1.00;;;;;;4973244;28;20805;-54
2022/09/21 06:16:10;;;;;;;12.82;5.50;;;17.00;99.90;;;;;;4991121;28;20761;-54
2022/09/21 06:18:40;;;;;;;11.40;5.00;;;17.00;99.90;;;;;;4990501;28;20391;-54
2022/09/21 06:21:08;;;;;;;11.55;5.13;;;16.80;99.90;;;;;;4991056;28;20414;-54
2022/09/21 06:23:35;;;;;;;9.90;5.60;;;16.40;99.90;;;;;;4990243;28;20437;-56
2022/09/21 06:26:00;;;;;;;10.45;5.00;;;16.20;99.90;;;;;;4991047;28;20424;-54
2022/09/21 06:28:26;;;;;;;12.07;6.00;;;16.90;99.90;;;;;;4991075;28;20892;-55
2022/09/21 06:30:59;;;;;;;11.13;5.95;;;17.10;99.90;;;;;;5066827;28;20883;-56
2022/09/21 06:33:25;;;;;;;11.95;5.63;;;17.30;99.90;;;;;;5067090;28;20400;-57
2022/09/21 06:35:58;;;;;;;13.50;6.22;;;18.40;99.90;;;;;;5066071;28;20493;-57
2022/09/21 06:38:26;;;;;;;12.90;7.00;;;18.80;99.90;;;;;;5066831;28;20408;-56
2022/09/21 06:40:52;;;;;;;12.82;8.00;;;19.30;99.90;;;;;;5065987;28;20397;-57
2022/09/21 06:43:19;;;;;;;14.05;10.00;;;20.60;99.90;;;;;;5066410;28;20827;-57
2022/09/21 06:45:55;;;;;;;14.40;9.70;;;20.80;99.90;;;;;;5065800;28;20805;-56
2022/09/21 06:48:21;;;;;;;17.10;9.60;;;19.70;99.90;;;;;;5066437;28;20770;-56
2022/09/21 06:50:47;;;;;;;11.97;9.20;;;18.80;99.90;;;;;;5065475;28;20796;-56
2022/09/21 06:53:13;;;;;;;15.15;9.60;;;19.20;99.90;;;;;;5067123;28;20430;-57
2022/09/21 06:55:39;;;;;;;13.20;9.98;;;20.50;99.90;;;;;;5065709;28;20380;-56
2022/09/21 06:58:05;;;;;;;12.70;8.75;;;21.50;99.90;;;;;;5066623;28;20377;-56
2022/09/21 07:00:31;;;;;;;12.18;8.90;;;21.20;99.90;;;;;;5065831;28;20495;-56
2022/09/21 07:02:58;;;;;;;13.63;9.50;;;21.50;99.90;;;;;;5066427;28;20373;-57
2022/09/21 07:05:24;;;;;;;13.87;9.90;;;21.10;99.90;;;;;;5066064;28;20426;-57
2022/09/21 07:07:50;;;;;;;15.40;10.75;;;21.40;99.90;;;;;;5065234;28;20448;-57
2022/09/21 07:10:16;;;;;;;12.52;10.60;;;21.50;99.90;;;;;;5066453;28;20716;-57
2022/09/21 07:12:42;;;;;;;14.68;10.50;;;21.80;99.90;;;;;;5065224;28;20384;-57
2022/09/21 07:15:09;;;;;;;15.13;10.20;;;22.10;99.90;;;;;;5066221;28;20712;-57
2022/09/21 07:17:37;;;;;;;12.75;10.15;;;22.50;99.90;;;;;;5064033;28;20385;-57
2022/09/21 07:20:04;;;;;;;13.93;10.27;;;22.20;99.90;;;;;;5065936;28;20426;-57
2022/09/21 07:22:31;;;;;;;13.73;10.32;;;21.10;99.90;;;;;;5065141;28;20381;-57
2022/09/21 07:24:57;;;;;;;13.10;10.40;;;19.80;99.90;;;;;;5065541;28;20373;-57
2022/09/21 07:27:24;;;;;;;12.85;9.50;;;20.70;99.90;;;;;;5065729;28;20377;-57
2022/09/21 07:29:50;;;;;;;13.23;10.60;;;22.00;99.90;;;;;;5075392;28;20438;-57
2022/09/21 07:32:16;;;;;;;14.13;10.60;;;22.30;99.90;;;;;;5085864;28;20385;-57
2022/09/21 07:34:41;;;;;;;12.48;9.98;;;22.50;99.90;;;;;;5085075;28;20852;-57
2022/09/21 07:37:07;;;;;;;12.70;11.07;;;22.40;99.90;;;;;;5085573;28;20376;-57
2022/09/21 07:39:34;;;;;;;12.00;10.70;;;22.40;99.90;;;;;;5085553;28;20437;-57
2022/09/21 07:42:00;;;;;;;12.10;10.80;;;21.90;99.90;;;;;;5074199;28;20384;-56
2022/09/21 07:44:25;;;;;;;14.15;11.23;;;21.20;99.90;;;;;;5072219;28;20394;-56
2022/09/21 07:46:51;;;;;;;11.60;10.40;;;20.90;99.90;;;;;;5071294;28;21054;-57
2022/09/21 07:49:17;;;;;;;14.20;11.10;;;21.40;99.90;;;;;;5072047;28;20396;-57
2022/09/21 07:51:42;;;;;;;13.77;10.00;;;21.50;99.90;;;;;;5071213;28;20872;-58
2022/09/21 07:54:12;;;;;;;12.60;10.40;;;22.90;99.90;;;;;;5072184;28;20433;-57
2022/09/21 07:56:38;;;;;;;12.25;7.72;;;23.60;99.90;;;;;;5071085;28;20430;-57
2022/09/21 07:59:07;;;;;;;13.05;11.65;;;24.30;99.90;;;;;;5072150;28;20434;-57
2022/09/21 08:01:38;;;;;;;15.57;13.65;;;24.30;99.90;;;;;;5070952;28;20475;-57
2022/09/21 08:04:06;;;;;;;12.90;6.10;;;24.80;99.90;;;;;;5071555;28;20379;-57
2022/09/21 08:06:34;;;;;;;11.60;9.10;;;23.70;99.90;;;;;;5075352;28;20562;-57
2022/09/21 08:09:00;;;;;;;12.30;5.57;;;23.30;99.90;;;;;;5075249;28;20903;-58
2022/09/21 08:11:29;;;;;;;10.57;4.93;;;22.90;99.90;;;;;;5071819;28;20387;-57
2022/09/21 08:14:00;;;;;;;11.82;6.15;;;22.80;99.90;;;;;;5066423;28;20405;-57
2022/09/21 08:16:27;;;;;;;9.02;5.00;;;23.50;99.90;;;;;;5077726;28;20454;-58
2022/09/21 08:18:53;;;;;;;9.30;4.70;;;23.60;99.90;;;;;;5091276;28;20416;-57
2022/09/21 08:21:19;;;;;;;10.27;4.47;;;23.20;99.90;;;;;;5073775;28;20862;-58
2022/09/21 08:23:48;;;;;;;10.98;5.00;;;22.60;99.90;;;;;;5090904;28;20386;-57
2022/09/21 08:26:17;;;;;;;8.70;3.90;;;24.60;99.90;;;;;;5091396;28;20874;-57
2022/09/21 08:28:47;;;;;;;11.70;5.35;;;24.80;99.90;;;;;;5090372;28;20447;-57
2022/09/21 08:31:13;;;;;;;10.23;4.40;;;24.40;99.90;;;;;;5091643;28;20386;-57
2022/09/21 08:33:39;;;;;;;9.03;4.53;;;24.00;99.90;;;;;;5090773;28;20375;-57
2022/09/21 08:36:05;;;;;;;11.70;4.87;;;24.60;99.90;;;;;;5091433;28;20404;-57
2022/09/21 08:38:36;;;;;;;10.60;5.10;;;24.60;1.00;;;;;;5090904;28;20381;-58
2022/09/21 08:41:23;;;;;;;10.90;6.20;;;25.20;1.00;;;;;;5091431;28;20381;-58
2022/09/21 08:43:53;;;;;;;9.20;4.88;;;25.30;1.00;;;;;;5090786;28;20451;-58
2022/09/21 08:46:23;;;;;;;8.93;3.45;;;25.50;1.00;;;;;;5091157;28;20385;-57
2022/09/21 08:49:02;;;;;;;7.95;4.47;;;25.20;1.00;;;;;;5090335;28;20386;-57
2022/09/21 08:51:31;;;;;;;7.18;3.70;;;25.70;1.00;;;;;;5091238;28;20801;-58
2022/09/21 08:54:14;;;;;;;7.95;3.45;;;25.80;1.00;;;;;;5089566;28;20466;-58
2022/09/21 08:56:39;;;;;;;8.20;3.10;;;25.90;1.00;;;;;;5090620;28;20464;-58
2022/09/21 08:59:11;;;;;;;8.73;3.20;;;26.20;1.00;;;;;;5090850;28;20795;-58
2022/09/21 09:01:57;;;;;;;7.47;3.33;;;27.70;1.00;;;;;;5090145;28;20874;-58
2022/09/21 09:04:43;;;;;;;7.50;3.10;;;28.40;99.90;;;;;;5091218;28;20374;-58
2022/09/21 09:07:44;;;;;;;8.10;3.23;;;28.20;99.90;;;;;;5090274;28;20409;-58
2022/09/21 09:10:39;;;;;;;8.50;3.20;;;27.70;1.00;;;;;;5036651;28;20881;-58
2022/09/21 09:13:26;;;;;;;7.10;2.70;;;27.10;99.90;;;;;;5088881;28;20374;-58
2022/09/21 09:16:15;;;;;;;5.88;2.00;;;27.30;99.90;;;;;;5069712;28;20455;-58
2022/09/21 09:18:55;;;;;;;6.85;2.35;;;28.70;99.90;;;;;;5069968;28;20391;-58
2022/09/21 09:21:54;;;;;;;6.60;2.60;;;28.70;99.90;;;;;;5070668;28;20388;-57
2022/09/21 09:24:37;;;;;;;7.30;2.50;;;29.00;99.90;;;;;;5066872;28;20392;-57
2022/09/21 09:27:15;;;;;;;5.43;1.50;;;27.90;99.90;;;;;;5070171;28;20376;-58
2022/09/21 09:29:51;;;;;;;7.05;1.90;;;28.70;99.90;;;;;;5069222;28;20442;-58
2022/09/21 09:32:17;;;;;;;7.37;2.77;;;28.50;99.90;;;;;;5070403;28;20403;-58
2022/09/21 09:34:52;;;;;;;7.05;1.75;;;28.10;99.90;;;;;;5069570;28;20372;-58
2022/09/21 09:37:22;;;;;;;5.43;1.53;;;28.00;99.90;;;;;;5070356;28;20402;-57
2022/09/21 09:39:56;;;;;;;10.13;2.23;;;28.50;99.90;;;;;;5069191;28;20845;-57
2022/09/21 09:42:48;;;;;;;7.68;1.77;;;27.80;99.90;;;;;;5070280;28;20849;-57
2022/09/21 09:45:27;;;;;;;6.88;1.80;;;27.60;99.90;;;;;;5066336;28;20455;-57
2022/09/21 09:48:16;;;;;;;5.20;1.53;;;27.70;99.90;;;;;;5069431;28;20372;-57
2022/09/21 09:50:42;;;;;;;5.50;1.30;;;27.10;99.90;;;;;;5069180;28;20411;-58
2022/09/21 09:53:13;;;;;;;6.05;1.95;;;27.10;99.90;;;;;;5069949;28;20411;-58
2022/09/21 09:55:59;;;;;;;5.30;1.40;;;26.80;99.90;;;;;;5069154;28;20392;-58
2022/09/21 09:58:55;;;;;;;5.97;1.20;;;26.50;99.90;;;;;;5069289;28;20396;-57
2022/09/21 10:01:41;;;;;;;5.30;1.38;;;26.30;99.90;;;;;;5070242;28;20416;-57
2022/09/21 10:04:16;;;;;;;5.65;1.33;;;26.20;99.90;;;;;;5069550;28;20561;-57
2022/09/21 10:06:42;;;;;;;7.30;1.95;;;25.80;99.90;;;;;;5069100;28;20376;-58
2022/09/21 10:09:28;;;;;;;5.35;1.30;;;26.10;99.90;;;;;;5069634;28;20415;-58
2022/09/21 10:12:28;;;;;;;6.13;1.70;;;26.40;99.90;;;;;;5068876;28;20407;-57
2022/09/21 10:15:00;;;;;;;5.90;1.70;;;25.70;99.90;;;;;;5064290;28;20383;-58
2022/09/21 10:17:26;;;;;;;8.60;1.90;;;26.40;99.90;;;;;;5069567;28;20383;-57
2022/09/21 10:20:04;;;;;;;5.60;1.70;;;26.80;99.90;;;;;;5068871;28;20379;-57
2022/09/21 10:22:30;;;;;;;6.25;1.70;;;26.80;99.90;;;;;;5069717;28;20415;-57
2022/09/21 10:24:58;;;;;;;7.97;1.80;;;27.30;99.90;;;;;;5068542;28;20489;-57
2022/09/21 10:27:32;;;;;;;6.53;2.10;;;27.30;99.90;;;;;;5069668;28;20379;-57
2022/09/21 10:29:57;;;;;;;6.28;1.80;;;27.30;99.90;;;;;;5069034;28;20424;-57
2022/09/21 10:32:28;;;;;;;6.60;1.70;;;26.50;99.90;;;;;;5069398;28;20379;-57
2022/09/21 10:35:09;;;;;;;7.07;2.20;;;26.60;99.90;;;;;;5068526;28;20434;-57
2022/09/21 10:37:39;;;;;;;5.70;2.10;;;26.70;99.90;;;;;;5069005;28;20742;-58
2022/09/21 10:40:21;;;;;;;6.25;1.90;;;27.00;99.90;;;;;;5069758;28;20895;-58
2022/09/21 10:42:54;;;;;;;5.60;1.40;;;26.90;99.90;;;;;;5068649;28;20729;-58
2022/09/21 10:45:30;;;;;;;6.00;1.90;;;27.20;99.90;;;;;;5069531;28;20402;-58
2022/09/21 10:48:09;;;;;;;5.95;1.60;;;27.30;99.90;;;;;;5068692;28;20412;-58
2022/09/21 10:50:39;;;;;;;6.70;1.90;;;27.40;99.90;;;;;;5068636;28;20438;-58
2022/09/21 10:53:08;;;;;;;5.90;1.50;;;27.20;99.90;;;;;;5069443;28;20444;-58
2022/09/21 10:55:38;;;;;;;6.63;4.20;;;27.60;99.90;;;;;;5068897;28;20384;-58
2022/09/21 10:58:12;;;;;;;6.80;4.50;;;27.70;99.90;;;;;;5069497;28;20853;-58
2022/09/21 11:00:50;;;;;;;7.30;3.63;;;28.00;99.90;;;;;;5068853;28;20838;-58
2022/09/21 11:03:27;;;;;;;5.60;2.77;;;27.50;99.90;;;;;;5051191;28;20466;-58
2022/09/21 11:05:56;;;;;;;7.10;4.35;;;26.10;99.90;;;;;;5068495;28;20471;-58
2022/09/21 11:08:34;;;;;;;6.95;1.60;;;25.70;99.90;;;;;;5068995;28;20514;-58
2022/09/21 11:11:06;;;;;;;6.70;1.50;;;24.90;99.90;;;;;;5068945;28;20414;-57
2022/09/21 11:14:06;;;;;;;7.70;3.25;;;24.00;99.90;;;;;;5068991;28;20437;-58
2022/09/21 11:16:52;;;;;;;5.63;1.65;;;23.60;99.90;;;;;;5068970;28;20462;-58
2022/09/21 11:19:17;;;;;;;9.15;1.80;;;22.10;99.90;;;;;;5067390;28;20944;-57
2022/09/21 11:21:43;;;;;;;6.50;1.60;;;21.40;99.90;;;;;;5068176;28;20392;-57
2022/09/21 11:24:30;;;;;;;5.27;1.23;;;20.90;99.90;;;;;;5071731;28;20440;-57
2022/09/21 11:27:05;;;;;;;4.90;1.20;;;20.60;99.90;;;;;;5068228;28;20432;-57
2022/09/21 11:29:46;;;;;;;5.10;1.40;;;20.20;99.90;;;;;;5068142;28;21253;-57
2022/09/21 11:32:46;;;;;;;7.47;5.40;;;20.90;99.90;;;;;;5069487;28;20396;-58
2022/09/21 11:35:27;;;;;;;8.03;5.20;;;20.00;99.90;;;;;;4980884;28;20404;-57
2022/09/21 11:37:56;;;;;;;6.88;4.70;;;20.00;99.90;;;;;;5066087;28;20458;-55
2022/09/21 11:40:27;;;;;;;6.03;4.40;;;20.00;99.90;;;;;;5072003;28;20394;-57
2022/09/21 11:43:24;;;;;;;6.13;4.40;;;20.10;99.90;;;;;;5068486;28;20379;-58
2022/09/21 11:46:00;;;;;;;7.40;5.10;;;20.00;99.90;;;;;;5053252;28;20392;-58
2022/09/21 11:48:38;;;;;;;6.50;4.20;;;19.90;99.90;;;;;;5071688;28;20403;-57
2022/09/21 11:51:39;;;;;;;6.85;4.15;;;19.70;99.90;;;;;;5071738;28;20481;-57
2022/09/21 11:54:24;;;;;;;6.60;4.55;;;20.00;99.90;;;;;;5071032;28;20375;-57
2022/09/21 11:57:15;;;;;;;7.25;4.00;;;20.60;99.90;;;;;;5070534;28;20771;-57
2022/09/21 11:59:54;;;;;;;6.20;4.00;;;20.80;99.90;;;;;;5067483;28;20464;-57
2022/09/21 12:02:45;;;;;;;6.20;3.60;;;20.60;99.90;;;;;;5070353;28;20384;-57
2022/09/21 12:05:44;;;;;;;6.20;4.00;;;20.70;99.90;;;;;;5068622;28;20407;-57
2022/09/21 12:08:36;;;;;;;5.90;3.60;;;20.40;99.90;;;;;;5069113;28;20406;-58
2022/09/21 12:11:12;;;;;;;6.20;3.75;;;20.50;99.90;;;;;;5069732;28;20411;-58
2022/09/21 12:13:51;;;;;;;6.75;3.70;;;20.60;99.90;;;;;;5068430;28;20388;-58
2022/09/21 12:16:39;;;;;;;5.55;3.83;;;20.40;99.90;;;;;;5070181;28;20396;-58
2022/09/21 12:19:29;;;;;;;5.20;3.30;;;20.10;99.90;;;;;;5071519;28;20390;-58
2022/09/21 12:22:04;;;;;;;6.00;3.80;;;20.40;99.90;;;;;;5070927;28;20379;-58
2022/09/21 12:24:39;;;;;;;6.28;3.60;;;20.60;99.90;;;;;;5071472;28;20375;-58
2022/09/21 12:27:26;;;;;;;6.93;3.72;;;20.70;99.90;;;;;;5071140;28;20929;-58
2022/09/21 12:29:59;;;;;;;5.47;3.47;;;20.40;99.90;;;;;;5070205;28;20855;-58
2022/09/21 12:32:52;;;;;;;5.55;3.50;;;20.40;99.90;;;;;;5071529;28;20471;-57
2022/09/21 12:35:39;;;;;;;6.53;3.95;;;21.00;99.90;;;;;;5071427;28;20462;-57
2022/09/21 12:38:18;;;;;;;6.25;3.92;;;21.00;99.90;;;;;;5071505;28;20383;-58
2022/09/21 12:40:50;;;;;;;6.20;3.80;;;20.80;99.90;;;;;;5070670;28;20395;-58
2022/09/21 12:43:41;;;;;;;7.18;3.70;;;20.40;99.90;;;;;;5070936;28;20888;-58
2022/09/21 12:46:30;;;;;;;5.90;4.18;;;20.40;99.90;;;;;;5071194;28;20380;-58
2022/09/21 12:49:00;;;;;;;5.53;3.78;;;20.30;99.90;;;;;;5070293;28;20380;-57
2022/09/21 12:51:49;;;;;;;5.90;4.10;;;20.50;99.90;;;;;;5071037;28;20382;-58
2022/09/21 12:54:55;;;;;;;6.95;4.10;;;20.50;99.90;;;;;;5070906;28;20376;-58
2022/09/21 12:57:30;;;;;;;5.80;3.77;;;20.80;99.90;;;;;;5032944;28;20462;-58
2022/09/21 13:00:03;;;;;;;6.35;3.65;;;20.60;99.90;;;;;;5069996;28;20404;-58
2022/09/21 13:02:47;;;;;;;5.95;3.50;;;20.40;99.90;;;;;;5071100;28;20467;-57
2022/09/21 13:05:34;;;;;;;5.50;3.80;;;20.20;99.90;;;;;;5070858;28;20895;-58
2022/09/21 13:08:09;;;;;;;6.30;3.60;;;20.20;99.90;;;;;;5070265;28;20380;-57
2022/09/21 13:10:47;;;;;;;5.23;3.40;;;20.20;99.90;;;;;;5070459;28;20411;-57
2022/09/21 13:13:24;;;;;;;5.90;3.80;;;20.20;99.90;;;;;;5070566;28;20394;-57
2022/09/21 13:15:52;;;;;;;5.50;3.60;;;20.20;99.90;;;;;;5069559;28;20387;-57